< < Back
Terminal Aerodrome Forecast


Current Version              Previous Versions:   1  2  3  4  5  6  7  8  9  

Terminal Aerodrome Forecast

260
FTUS42 KGSP 011747
TAFCLT
TAF
KCLT 011747Z 0118/0218 24005KT P6SM SCT060
     FM012000 25006G12KT P6SM BKN060
      TEMPO 0120/0123 4SM TSRA BKN040CB
     FM020300 27005KT P6SM VCSH OVC045
     FM020800 23006KT P6SM BKN035=

Latest METAR

554
SAUS70 KWBC 012256
MTRCLT
METAR KCLT 012252Z 23005KT 8SM OVC250 28/19 A2996 RMK AO2 SLP137
T02780194


USA.gov is the U.S. government's official web portal to all federal, state and local government web resources and services.